This is the latest recevied weather packets stored in our database for station/object WX0ABE-13. If no packets are shown the sender has not sent any weather packets the latest 10 day(s).
| Time | Temp. | Humidity | Pressure | Rain* | Wind** | Luminosity | Snow |
|---|---|---|---|---|---|---|---|
| 1788051157 | 24.44° C | 58% | 1015 hPa | 0 mm | - | 2 W/m² | - |
| 1788050857 | 24.44° C | 56% | 1014.7 hPa | 0 mm | - | 2 W/m² | - |
| 1788050552 | 25° C | 57% | 1015 hPa | 0 mm | - | 2 W/m² | - |
| 1788050247 | 26.67° C | 52% | 1014.8 hPa | 0 mm | - | 3 W/m² | - |
| 1788049941 | 27.78° C | 44% | 1015 hPa | 0 mm | - | 3 W/m² | - |
| 1788049639 | 28.33° C | 40% | 1014.9 hPa | 0 mm | - | 3 W/m² | - |
| 1788049335 | 30° C | 37% | 1014.7 hPa | 0 mm | - | 3 W/m² | - |
| 1788049035 | 31.67° C | 34% | 1014.1 hPa | 0 mm | - | 5 W/m² | - |
| 1788048731 | 31.67° C | 35% | 1013.4 hPa | 0 mm | - | 9 W/m² | - |
| 1788048429 | 32.22° C | 34% | 1013.5 hPa | 0 mm | - | 12 W/m² | - |
| 1788048128 | 32.22° C | 33% | 1013.3 hPa | 0 mm | - | 17 W/m² | - |
| 1788047826 | 32.78° C | 31% | 1012.9 hPa | 0 mm | - | 23 W/m² | - |
| 1788047520 | 32.78° C | 30% | 1012.9 hPa | 0 mm | - | 31 W/m² | - |
| 1788047216 | 33.89° C | 28% | 1013 hPa | 0 mm | - | 42 W/m² | - |
| 1788046915 | 33.89° C | 26% | 1012.8 hPa | 0 mm | - | 54 W/m² | - |
| 1788046614 | 33.89° C | 26% | 1012.8 hPa | 0 mm | - | 56 W/m² | - |
| 1788046309 | 34.44° C | 26% | 1012.6 hPa | 0 mm | - | 49 W/m² | - |
| 1788046007 | 35° C | 26% | 1012.5 hPa | 0 mm | - | 56 W/m² | - |
| 1788045703 | 35.56° C | 24% | 1012.6 hPa | 0 mm | - | 99 W/m² | - |
| 1788045403 | 35.56° C | 23% | 1012.5 hPa | 0 mm | - | 267 W/m² | - |
| 1788045098 | 35.56° C | 24% | 1012.7 hPa | 0 mm | - | 293 W/m² | - |
| 1788044798 | 35° C | 25% | 1012.6 hPa | 0 mm | - | 324 W/m² | - |
| 1788044493 | 35.56° C | 23% | 1012.7 hPa | 0 mm | - | 335 W/m² | - |
| 1788044193 | 35° C | 26% | 1012.6 hPa | 0 mm | - | 134 W/m² | - |
| 1788043888 | 35° C | 24% | 1013 hPa | 0 mm | - | 116 W/m² | - |
* Rain latest hour (hover to see other rain measurements)
** Current wind speed in m/s (hover to see current wind gust speed)